This demonstration page uses our WeatherBlox Daily Observations layout. Learn more.

41.55636, -103.73856

Hourly Observations for August 14, 2018

Temp ( °F °C ) Dew Point ( °F °C ) Humidity (%) Winds ( mph kmh ) Pressure ( in mb ) Visibility ( mi km ) Precip ( " mm )
12:58 am 00:58 Clear 62 16.5 59 15 91 91 S 6 9 29.97 1015 10 16.09344 0 0
1:58 am 01:58 Clear 60 15.5 58 14.4 93 93 SW 6 9 29.97 1015 10 16.09344 0 0
2:58 am 02:58 Clear 60 15.3 58 14.4 94 94 W 6 9 29.94 1014 10 16.09344 0 0
3:58 am 03:58 Clear 59 14.9 57 13.9 94 94 W 8 13 29.94 1014 10 16.09344 0 0
4:58 am 04:58 Clear 57 14 55 13 94 94 NNW 6 9 29.94 1014 10 16.09344 0 0
5:58 am 05:58 Clear with Mist and Fog 56 13.5 55 12.8 96 96 NE 7 11 29.94 1014 3 4.828032 0 0
6:58 am 06:58 Mostly Cloudy with Fog 59 15 58 14.6 97 97 NE 8 13 29.97 1015 0 0 0 0
7:58 am 07:58 Mostly Cloudy with Light Rain 61 15.9 60 15.4 97 97 NE 8 13 30 1016 1 1.609344 0 0
8:58 am 08:58 Mostly Cloudy with Light Showers 60 15.8 59 15.1 96 96 ENE 13 20 30.03 1017 1 1.609344 0 0
9:58 am 09:58 Mostly Cloudy with Mist and Fog 60 15.3 59 14.8 97 97 ENE 8 13 30.03 1017 5 8.04672 0 0
10:58 am 10:58 Cloudy 60 15.8 60 15.4 97 97 E 3 6 30.03 1017 10 16.09344 0 0
11:58 am 11:58 Cloudy 63 17.4 60 15.4 88 88 E 6 9 30.06 1018 10 16.09344 0 0
12:58 pm 12:58 Mostly Cloudy 67 19.4 60 15.3 77 77 SSE 9 15 30.03 1017 10 16.09344 0 0
1:58 pm 13:58 Sunny 71 21.8 59 14.8 65 65 SE 7 11 30 1016 10 16.09344 0 0
2:58 pm 14:58 Partly Cloudy 73 22.9 55 13 54 54 Calm 30 1016 10 16.09344 0 0
3:58 pm 15:58 Sunny 73 22.5 56 13.2 56 56 Calm 30 1016 10 16.09344 0 0
4:58 pm 16:58 Cloudy with Rain 69 20.5 59 15.2 72 72 SSW 9 15 30 1016 10 16.09344 0.02 0.508
5:58 pm 17:58 Mostly Sunny 68 20.2 59 14.9 72 72 S 9 15 29.94 1014 10 16.09344 0.02 0.508
6:58 pm 18:58 Mostly Sunny 69 20.6 59 14.9 70 70 S 5 7 29.94 1014 10 16.09344 0 0
7:58 pm 19:58 Partly Cloudy 65 18.3 59 15 81 81 NNW 5 7 30 1016 10 16.09344 0 0
8:58 pm 20:58 Partly Cloudy 61 16 56 13.3 84 84 ESE 3 6 30.03 1017 10 16.09344 0 0
9:58 pm 21:58 Partly Cloudy 58 14.7 56 13.1 90 90 SSE 10 17 30 1016 10 16.09344 0 0
10:58 pm 22:58 Mostly Clear 59 15.2 55 13 87 87 S 9 15 30 1016 10 16.09344 0 0
11:58 pm 23:58 Partly Cloudy 58 14.2 55 12.9 92 92 SSE 7 11 29.97 1015 10 16.09344 0 0

Powered by AerisWeather